Time;durP1;ratioP1;P1;durP2;ratioP2;P2;SDS_P1;SDS_P2;PMS_P1;PMS_P2;Temp;Humidity;BMP_temperature;BMP_pressure;BME280_temperature;BME280_humidity;BME280_pressure;Samples;Min_cycle;Max_cycle;Signal;HPM_P1;HPM_P2
2023/04/20 00:01:52;;;;;;;10.10;7.87;;;;;;;;;;5114877;28;20564;-73
2023/04/20 00:04:20;;;;;;;9.87;6.90;;;;;;;;;;5113822;28;20454;-73
2023/04/20 00:06:48;;;;;;;11.90;7.57;;;;;;;;;;5114471;28;20889;-73
2023/04/20 00:09:15;;;;;;;13.80;9.10;;;;;;;;;;5114259;28;20449;-73
2023/04/20 00:11:42;;;;;;;12.60;9.37;;;;;;;;;;5114412;28;20477;-73
2023/04/20 00:14:11;;;;;;;12.80;9.13;;;;;;;;;;5113985;28;20458;-73
2023/04/20 00:16:38;;;;;;;14.50;9.77;;;;;;;;;;5113972;28;20457;-73
2023/04/20 00:19:06;;;;;;;12.27;9.23;;;;;;;;;;5113857;28;20477;-72
2023/04/20 00:21:33;;;;;;;13.00;8.57;;;;;;;;;;5114093;28;20505;-72
2023/04/20 00:24:00;;;;;;;13.47;8.80;;;;;;;;;;5113862;28;20446;-72
2023/04/20 00:26:27;;;;;;;13.83;9.50;;;;;;;;;;5113879;28;20454;-72
2023/04/20 00:28:54;;;;;;;15.10;9.93;;;;;;;;;;5113618;28;20466;-69
2023/04/20 00:31:23;;;;;;;13.53;9.30;;;;;;;;;;5113481;28;20534;-70
2023/04/20 00:33:50;;;;;;;12.53;8.97;;;;;;;;;;5113529;28;20891;-70
2023/04/20 00:36:17;;;;;;;11.53;8.97;;;;;;;;;;5113424;28;20453;-69
2023/04/20 00:38:44;;;;;;;13.33;9.30;;;;;;;;;;5113465;28;20485;-69
2023/04/20 00:41:11;;;;;;;15.10;9.30;;;;;;;;;;5113491;28;20458;-70
2023/04/20 00:43:39;;;;;;;13.17;9.50;;;;;;;;;;5113513;28;20460;-69
2023/04/20 00:46:06;;;;;;;16.17;9.33;;;;;;;;;;5113380;28;20524;-69
2023/04/20 00:48:34;;;;;;;13.10;9.70;;;;;;;;;;5113370;28;20442;-70
2023/04/20 00:51:02;;;;;;;14.47;9.33;;;;;;;;;;5113620;28;20450;-69
2023/04/20 00:53:29;;;;;;;13.07;9.20;;;;;;;;;;5113179;28;21012;-70
2023/04/20 00:55:56;;;;;;;15.07;10.13;;;;;;;;;;5113680;28;20446;-69
2023/04/20 00:58:24;;;;;;;14.13;9.70;;;;;;;;;;5113435;28;20998;-69
2023/04/20 01:00:51;;;;;;;13.40;8.90;;;;;;;;;;5113737;28;20521;-69
2023/04/20 01:03:18;;;;;;;14.17;9.40;;;;;;;;;;5113213;28;20462;-70
2023/04/20 01:05:47;;;;;;;14.50;10.20;;;;;;;;;;5113170;28;20452;-70
2023/04/20 01:08:14;;;;;;;17.57;11.43;;;;;;;;;;5113344;28;20550;-69
2023/04/20 01:10:41;;;;;;;17.63;9.93;;;;;;;;;;5113450;28;20550;-70
2023/04/20 01:13:08;;;;;;;13.87;10.27;;;;;;;;;;5113660;28;20468;-69
2023/04/20 01:15:35;;;;;;;13.70;10.33;;;;;;;;;;5114760;28;20943;-71
2023/04/20 01:18:04;;;;;;;14.20;10.13;;;;;;;;;;5117313;28;20488;-70
2023/04/20 01:20:33;;;;;;;17.20;11.70;;;;;;;;;;5117533;28;20962;-70
2023/04/20 01:23:02;;;;;;;17.07;10.80;;;;;;;;;;5117293;28;20469;-70
2023/04/20 01:25:29;;;;;;;20.30;13.20;;;;;;;;;;5116971;28;20540;-70
2023/04/20 01:27:56;;;;;;;16.37;11.50;;;;;;;;;;5116698;28;20452;-70
2023/04/20 01:30:24;;;;;;;19.83;12.43;;;;;;;;;;5117170;27;20810;-70
2023/04/20 01:32:51;;;;;;;20.70;13.17;;;;;;;;;;5117108;28;20469;-70
2023/04/20 01:35:18;;;;;;;19.87;12.77;;;;;;;;;;5116816;28;20449;-70
2023/04/20 01:37:46;;;;;;;22.67;13.00;;;;;;;;;;5117037;28;20485;-69
2023/04/20 01:40:15;;;;;;;17.80;11.57;;;;;;;;;;5116945;28;20446;-69
2023/04/20 01:42:42;;;;;;;24.27;14.50;;;;;;;;;;5116962;28;20522;-70
2023/04/20 01:45:10;;;;;;;26.40;14.47;;;;;;;;;;5116549;28;20461;-70
2023/04/20 01:47:37;;;;;;;22.93;14.10;;;;;;;;;;5116846;28;20450;-69
2023/04/20 01:50:04;;;;;;;21.13;13.00;;;;;;;;;;5117034;28;20449;-70
2023/04/20 01:52:33;;;;;;;22.20;13.43;;;;;;;;;;5116907;28;20976;-70
2023/04/20 01:55:00;;;;;;;20.97;13.47;;;;;;;;;;5116565;28;20437;-69
2023/04/20 01:57:28;;;;;;;27.57;14.30;;;;;;;;;;5116533;27;20540;-70
2023/04/20 01:59:55;;;;;;;21.53;13.27;;;;;;;;;;5116592;28;20449;-69
2023/04/20 02:02:22;;;;;;;20.50;13.80;;;;;;;;;;5116493;28;20473;-70
2023/04/20 02:04:50;;;;;;;18.60;13.00;;;;;;;;;;5116569;27;20805;-70
2023/04/20 02:07:17;;;;;;;20.13;12.60;;;;;;;;;;5116532;28;20946;-70
2023/04/20 02:09:44;;;;;;;18.23;12.70;;;;;;;;;;5116426;28;20450;-69
2023/04/20 02:12:11;;;;;;;20.90;10.37;;;;;;;;;;5116343;27;20466;-69
2023/04/20 02:14:39;;;;;;;18.77;10.97;;;;;;;;;;5116127;28;20446;-69
2023/04/20 02:17:07;;;;;;;17.10;10.30;;;;;;;;;;5116238;28;20449;-69
2023/04/20 02:19:35;;;;;;;16.33;10.17;;;;;;;;;;5116216;28;20485;-69
2023/04/20 02:22:02;;;;;;;17.57;11.13;;;;;;;;;;5116193;28;20476;-69
2023/04/20 02:24:29;;;;;;;15.83;11.93;;;;;;;;;;5115925;28;20452;-70
2023/04/20 02:26:57;;;;;;;17.40;10.53;;;;;;;;;;5115409;28;20456;-70
2023/04/20 02:29:24;;;;;;;15.27;11.23;;;;;;;;;;5115618;28;21007;-69
2023/04/20 02:31:53;;;;;;;15.00;10.00;;;;;;;;;;5116138;28;20476;-69
2023/04/20 02:34:20;;;;;;;15.40;10.87;;;;;;;;;;5115826;28;20472;-70
2023/04/20 02:36:47;;;;;;;13.70;9.37;;;;;;;;;;5116016;28;20487;-69
2023/04/20 02:39:14;;;;;;;14.93;10.37;;;;;;;;;;5115745;28;20485;-70
2023/04/20 02:41:41;;;;;;;16.50;11.90;;;;;;;;;;5115945;28;20469;-69
2023/04/20 02:44:09;;;;;;;20.00;11.10;;;;;;;;;;5115645;28;21126;-70
2023/04/20 02:46:36;;;;;;;18.60;10.63;;;;;;;;;;5115856;28;20458;-70
2023/04/20 02:49:04;;;;;;;17.57;12.47;;;;;;;;;;5115814;28;20449;-70
2023/04/20 02:51:31;;;;;;;15.37;10.47;;;;;;;;;;5115447;28;20481;-69
2023/04/20 02:53:59;;;;;;;17.90;10.97;;;;;;;;;;5115535;27;20449;-70
2023/04/20 02:56:26;;;;;;;16.83;10.63;;;;;;;;;;5115492;28;20489;-69
2023/04/20 02:58:53;;;;;;;19.50;11.63;;;;;;;;;;5115679;28;20485;-69
2023/04/20 03:01:20;;;;;;;15.97;11.70;;;;;;;;;;5115562;27;20454;-69
2023/04/20 03:03:48;;;;;;;18.63;10.40;;;;;;;;;;5115465;28;20982;-69
2023/04/20 03:06:16;;;;;;;15.33;11.33;;;;;;;;;;5115269;28;20908;-70
2023/04/20 03:08:44;;;;;;;19.23;11.33;;;;;;;;;;5115409;28;20450;-70
2023/04/20 03:11:11;;;;;;;18.30;11.30;;;;;;;;;;5115048;28;20456;-70
2023/04/20 03:13:38;;;;;;;21.63;11.70;;;;;;;;;;5115037;28;20446;-69
2023/04/20 03:16:06;;;;;;;18.90;11.83;;;;;;;;;;5115285;28;20965;-69
2023/04/20 03:18:33;;;;;;;15.30;10.13;;;;;;;;;;5115120;28;20477;-69
2023/04/20 03:21:00;;;;;;;16.90;10.67;;;;;;;;;;5115083;27;20461;-69
2023/04/20 03:23:28;;;;;;;17.00;11.60;;;;;;;;;;5114964;28;20470;-70
2023/04/20 03:25:56;;;;;;;15.77;11.10;;;;;;;;;;5115089;28;20477;-69
2023/04/20 03:28:23;;;;;;;17.20;11.40;;;;;;;;;;5114381;28;20914;-70
2023/04/20 03:30:50;;;;;;;18.30;11.23;;;;;;;;;;5114867;28;20449;-69
2023/04/20 03:33:17;;;;;;;21.63;12.57;;;;;;;;;;5114637;28;20560;-70
2023/04/20 03:35:45;;;;;;;21.03;11.40;;;;;;;;;;5114940;28;20817;-70
2023/04/20 03:38:20;;;;;;;17.10;11.00;;;;;;;;;;5114226;28;20477;-70
2023/04/20 03:40:48;;;;;;;18.10;12.07;;;;;;;;;;5114791;28;20445;-70
2023/04/20 03:43:16;;;;;;;21.07;11.00;;;;;;;;;;5114921;28;20547;-70
2023/04/20 03:45:43;;;;;;;17.77;11.10;;;;;;;;;;5114500;28;20935;-70
2023/04/20 03:48:10;;;;;;;17.57;9.83;;;;;;;;;;5114640;28;20445;-70
2023/04/20 03:50:37;;;;;;;32.33;13.30;;;;;;;;;;5115170;28;20448;-71
2023/04/20 03:53:05;;;;;;;17.93;12.37;;;;;;;;;;5114726;28;20510;-72
2023/04/20 03:55:32;;;;;;;20.97;13.07;;;;;;;;;;5114440;28;20540;-70
2023/04/20 03:58:01;;;;;;;20.30;12.00;;;;;;;;;;5114461;28;20438;-74
2023/04/20 04:00:28;;;;;;;22.83;13.03;;;;;;;;;;5114207;28;20454;-72
2023/04/20 04:02:55;;;;;;;22.97;12.90;;;;;;;;;;5114421;28;20505;-70
2023/04/20 04:05:23;;;;;;;26.00;13.13;;;;;;;;;;5113930;28;20446;-69
2023/04/20 04:07:50;;;;;;;20.07;12.57;;;;;;;;;;5114310;28;20806;-69
2023/04/20 04:10:18;;;;;;;16.77;11.87;;;;;;;;;;5114115;28;21003;-70
2023/04/20 04:12:45;;;;;;;21.83;13.27;;;;;;;;;;5114149;28;20465;-70
2023/04/20 04:15:13;;;;;;;14.40;9.53;;;;;;;;;;5114093;28;20970;-70
2023/04/20 04:17:41;;;;;;;20.93;13.70;;;;;;;;;;5114208;28;20453;-69
2023/04/20 04:20:09;;;;;;;22.37;13.03;;;;;;;;;;5113955;28;20512;-69
2023/04/20 04:22:36;;;;;;;16.87;10.00;;;;;;;;;;5113933;28;20512;-69
2023/04/20 04:25:03;;;;;;;19.53;13.13;;;;;;;;;;5114009;28;20464;-70
2023/04/20 04:27:33;;;;;;;28.60;14.30;;;;;;;;;;5113843;28;20821;-70
2023/04/20 04:30:01;;;;;;;20.33;12.17;;;;;;;;;;5113358;28;20462;-70
2023/04/20 04:32:30;;;;;;;18.07;10.60;;;;;;;;;;5113782;28;20505;-70
2023/04/20 04:34:59;;;;;;;18.90;12.73;;;;;;;;;;5113518;28;20449;-70
2023/04/20 04:37:26;;;;;;;21.50;11.63;;;;;;;;;;5113767;28;20457;-70
2023/04/20 04:39:54;;;;;;;17.00;10.57;;;;;;;;;;5113756;28;20526;-70
2023/04/20 04:42:21;;;;;;;25.23;13.23;;;;;;;;;;5113552;28;20497;-70
2023/04/20 04:44:50;;;;;;;18.13;12.43;;;;;;;;;;5113442;28;20954;-70
2023/04/20 04:47:18;;;;;;;26.13;16.13;;;;;;;;;;5113634;28;20454;-69
2023/04/20 04:49:47;;;;;;;30.77;17.17;;;;;;;;;;5113197;28;20935;-70
2023/04/20 04:52:14;;;;;;;197.53;86.73;;;;;;;;;;5113478;28;20470;-70
2023/04/20 04:54:41;;;;;;;154.63;83.67;;;;;;;;;;5113286;28;20460;-70
2023/04/20 04:57:08;;;;;;;19.83;12.50;;;;;;;;;;5113530;28;20449;-70
2023/04/20 04:59:36;;;;;;;14.80;8.47;;;;;;;;;;5113484;28;20489;-70
2023/04/20 05:02:03;;;;;;;23.40;12.77;;;;;;;;;;5112826;28;21054;-69
2023/04/20 05:04:30;;;;;;;19.33;10.77;;;;;;;;;;5113411;28;20445;-70
2023/04/20 05:06:58;;;;;;;19.60;12.70;;;;;;;;;;5113447;28;20446;-70
2023/04/20 05:09:32;;;;;;;14.03;10.30;;;;;;;;;;5113204;28;20454;-69
2023/04/20 05:11:59;;;;;;;18.43;11.47;;;;;;;;;;5113565;28;20988;-69
2023/04/20 05:14:27;;;;;;;19.00;11.80;;;;;;;;;;5111532;28;20450;-70
2023/04/20 05:16:54;;;;;;;15.90;9.90;;;;;;;;;;5110894;28;20437;-70
2023/04/20 05:19:21;;;;;;;17.97;10.90;;;;;;;;;;5112997;28;20489;-70
2023/04/20 05:21:48;;;;;;;14.80;10.40;;;;;;;;;;5112968;28;20829;-70
2023/04/20 05:24:18;;;;;;;23.30;12.30;;;;;;;;;;5112651;28;20454;-70
2023/04/20 05:26:45;;;;;;;15.00;10.23;;;;;;;;;;5113064;28;20460;-69
2023/04/20 05:29:13;;;;;;;15.50;11.23;;;;;;;;;;5112441;28;20793;-69
2023/04/20 05:31:40;;;;;;;11.40;7.77;;;;;;;;;;5112873;28;20496;-69
2023/04/20 05:34:07;;;;;;;19.00;11.87;;;;;;;;;;5112742;28;20453;-70
2023/04/20 05:36:34;;;;;;;22.87;11.60;;;;;;;;;;5112815;28;20442;-69
2023/04/20 05:39:01;;;;;;;15.77;9.30;;;;;;;;;;5113103;28;20832;-69
2023/04/20 05:41:30;;;;;;;16.90;11.30;;;;;;;;;;5112615;28;20461;-69
2023/04/20 05:43:57;;;;;;;15.90;9.80;;;;;;;;;;5112673;28;20807;-69
2023/04/20 05:46:24;;;;;;;19.80;11.20;;;;;;;;;;5112580;28;20453;-69
2023/04/20 05:48:51;;;;;;;17.37;8.93;;;;;;;;;;5113136;28;20797;-70
2023/04/20 05:51:18;;;;;;;13.97;7.67;;;;;;;;;;5112668;28;20456;-69
2023/04/20 05:53:45;;;;;;;19.83;10.50;;;;;;;;;;5112805;28;20464;-70
2023/04/20 05:56:13;;;;;;;13.50;9.17;;;;;;;;;;5112943;28;20998;-69
2023/04/20 05:58:42;;;;;;;22.27;9.20;;;;;;;;;;5112864;28;20441;-69
2023/04/20 06:01:09;;;;;;;12.80;8.20;;;;;;;;;;5112333;28;20462;-69
2023/04/20 06:03:36;;;;;;;18.83;11.40;;;;;;;;;;5115854;28;20453;-69
2023/04/20 06:06:03;;;;;;;20.63;12.13;;;;;;;;;;5116527;28;20965;-69
2023/04/20 06:08:30;;;;;;;16.77;12.23;;;;;;;;;;5116626;28;20446;-70
2023/04/20 06:10:57;;;;;;;15.90;10.10;;;;;;;;;;5116767;28;20446;-69
2023/04/20 06:13:25;;;;;;;14.20;9.77;;;;;;;;;;5115397;28;20470;-69
2023/04/20 06:15:53;;;;;;;37.17;11.90;;;;;;;;;;5116170;28;20804;-69
2023/04/20 06:18:21;;;;;;;15.30;11.10;;;;;;;;;;5116200;28;20957;-69
2023/04/20 06:20:48;;;;;;;15.20;9.63;;;;;;;;;;5116295;28;20485;-69
2023/04/20 06:23:15;;;;;;;22.63;12.70;;;;;;;;;;5116097;28;20473;-69
2023/04/20 06:25:42;;;;;;;13.60;9.93;;;;;;;;;;5116059;28;20540;-69
2023/04/20 06:28:10;;;;;;;11.57;8.10;;;;;;;;;;5115486;28;20582;-70
2023/04/20 06:30:38;;;;;;;15.20;10.83;;;;;;;;;;5115798;28;20927;-70
2023/04/20 06:33:06;;;;;;;20.67;10.17;;;;;;;;;;5116095;28;20481;-69
2023/04/20 06:35:34;;;;;;;15.90;10.30;;;;;;;;;;5115597;28;20453;-69
2023/04/20 06:38:01;;;;;;;12.20;9.20;;;;;;;;;;5115977;28;20461;-69
2023/04/20 06:40:28;;;;;;;12.80;9.40;;;;;;;;;;5115806;28;20481;-70
2023/04/20 06:42:56;;;;;;;15.50;8.67;;;;;;;;;;5115602;28;21013;-69
2023/04/20 06:45:23;;;;;;;16.37;10.53;;;;;;;;;;5115247;28;20458;-69
2023/04/20 06:47:50;;;;;;;15.40;11.43;;;;;;;;;;5115727;28;20450;-69
2023/04/20 06:50:18;;;;;;;16.90;11.83;;;;;;;;;;5115598;28;20818;-69
2023/04/20 06:52:47;;;;;;;11.57;8.63;;;;;;;;;;5115766;28;20476;-68
2023/04/20 06:55:14;;;;;;;15.13;10.10;;;;;;;;;;5114610;27;20922;-69
2023/04/20 06:57:42;;;;;;;15.40;11.03;;;;;;;;;;5115207;28;20450;-68
2023/04/20 07:00:11;;;;;;;46.37;17.33;;;;;;;;;;5115203;27;20497;-69
2023/04/20 07:02:45;;;;;;;57.80;20.87;;;;;;;;;;5114967;28;20454;-69
2023/04/20 07:05:12;;;;;;;10.73;8.40;;;;;;;;;;5115121;28;20457;-70
2023/04/20 07:07:40;;;;;;;12.93;9.00;;;;;;;;;;5115027;28;20813;-69
2023/04/20 07:10:08;;;;;;;25.57;17.40;;;;;;;;;;5115145;28;20449;-69
2023/04/20 07:12:36;;;;;;;12.40;8.60;;;;;;;;;;5114685;28;20466;-69
2023/04/20 07:15:03;;;;;;;10.37;8.30;;;;;;;;;;5114856;28;20515;-69
2023/04/20 07:17:31;;;;;;;15.27;10.50;;;;;;;;;;5114995;28;20541;-69
2023/04/20 07:20:05;;;;;;;12.23;7.40;;;;;;;;;;5114046;28;20496;-68
2023/04/20 07:22:32;;;;;;;14.00;9.87;;;;;;;;;;5113436;28;20503;-69
2023/04/20 07:25:02;;;;;;;15.67;10.80;;;;;;;;;;5113621;28;20970;-69
2023/04/20 07:27:29;;;;;;;13.00;9.80;;;;;;;;;;5115059;28;20832;-69
2023/04/20 07:29:57;;;;;;;9.83;7.00;;;;;;;;;;5114206;28;20441;-69
2023/04/20 07:32:24;;;;;;;12.70;9.63;;;;;;;;;;5114294;28;21012;-69
2023/04/20 07:34:51;;;;;;;11.93;8.73;;;;;;;;;;5114726;28;20949;-69
2023/04/20 07:37:18;;;;;;;11.13;9.10;;;;;;;;;;5114582;28;20449;-69
2023/04/20 07:39:45;;;;;;;12.97;9.67;;;;;;;;;;5114894;28;20485;-69
2023/04/20 07:42:14;;;;;;;10.83;8.40;;;;;;;;;;5114744;28;20472;-69
2023/04/20 07:44:41;;;;;;;16.20;11.00;;;;;;;;;;5114444;28;20462;-69
2023/04/20 07:47:08;;;;;;;20.17;12.63;;;;;;;;;;5114637;28;20539;-69
2023/04/20 07:49:37;;;;;;;21.67;7.70;;;;;;;;;;5114471;28;20949;-69
2023/04/20 07:52:04;;;;;;;9.47;7.63;;;;;;;;;;5114382;28;20469;-69
2023/04/20 07:54:32;;;;;;;10.97;8.40;;;;;;;;;;5114263;28;20450;-69
2023/04/20 07:57:00;;;;;;;95.93;45.03;;;;;;;;;;5114500;28;20442;-69
2023/04/20 07:59:28;;;;;;;10.07;7.60;;;;;;;;;;5114207;28;20477;-69
2023/04/20 08:02:00;;;;;;;13.73;7.83;;;;;;;;;;5114191;28;20579;-69
2023/04/20 08:04:27;;;;;;;9.27;7.53;;;;;;;;;;5113958;28;20508;-69
2023/04/20 08:06:54;;;;;;;15.47;10.70;;;;;;;;;;5114453;28;20446;-69
2023/04/20 08:09:21;;;;;;;8.80;6.70;;;;;;;;;;5114060;28;21010;-69
2023/04/20 08:11:49;;;;;;;8.97;6.07;;;;;;;;;;5113926;28;20553;-69
2023/04/20 08:14:16;;;;;;;10.43;7.20;;;;;;;;;;5113737;28;20452;-70
2023/04/20 08:16:44;;;;;;;9.17;6.90;;;;;;;;;;5113703;28;20446;-70
2023/04/20 08:19:11;;;;;;;10.90;9.03;;;;;;;;;;5113737;28;20445;-70
2023/04/20 08:21:39;;;;;;;12.87;11.53;;;;;;;;;;5113726;28;20469;-70
2023/04/20 08:24:07;;;;;;;21.03;12.53;;;;;;;;;;5113727;28;20434;-69
2023/04/20 08:26:34;;;;;;;11.47;7.47;;;;;;;;;;5113746;28;20450;-69
2023/04/20 08:29:02;;;;;;;8.57;6.27;;;;;;;;;;5113536;28;20804;-71
2023/04/20 08:31:29;;;;;;;11.60;9.00;;;;;;;;;;5113553;28;20445;-70
2023/04/20 08:33:58;;;;;;;17.40;13.10;;;;;;;;;;5113632;28;20481;-70
2023/04/20 08:36:26;;;;;;;9.40;7.37;;;;;;;;;;5113475;28;20449;-70
2023/04/20 08:38:54;;;;;;;10.77;6.57;;;;;;;;;;5113640;28;20946;-70
2023/04/20 08:41:21;;;;;;;9.90;7.40;;;;;;;;;;5113299;28;20542;-70
2023/04/20 08:43:49;;;;;;;15.37;8.77;;;;;;;;;;5113348;28;20457;-70
2023/04/20 08:46:18;;;;;;;6.80;5.50;;;;;;;;;;5113462;28;20543;-70
2023/04/20 08:48:46;;;;;;;6.50;4.90;;;;;;;;;;5113503;28;20445;-69
2023/04/20 08:51:15;;;;;;;9.07;6.77;;;;;;;;;;5113565;28;20471;-69
2023/04/20 08:53:43;;;;;;;8.40;7.20;;;;;;;;;;5113594;28;20502;-70
2023/04/20 08:56:12;;;;;;;16.97;12.33;;;;;;;;;;5113366;28;20488;-70
2023/04/20 08:58:41;;;;;;;7.00;5.17;;;;;;;;;;5112429;28;20828;-70
2023/04/20 09:01:09;;;;;;;8.57;6.57;;;;;;;;;;5113654;28;20490;-69
2023/04/20 09:03:37;;;;;;;7.47;5.33;;;;;;;;;;5113488;28;20510;-72
2023/04/20 09:06:05;;;;;;;10.20;7.67;;;;;;;;;;5113825;28;20950;-70
2023/04/20 09:08:36;;;;;;;7.00;5.63;;;;;;;;;;5113323;28;20458;-69
2023/04/20 09:11:03;;;;;;;8.13;6.47;;;;;;;;;;5113488;28;20825;-69
2023/04/20 09:13:30;;;;;;;11.37;6.83;;;;;;;;;;5113066;28;20473;-68
2023/04/20 09:15:58;;;;;;;10.60;7.70;;;;;;;;;;5113332;28;20445;-69
2023/04/20 09:18:25;;;;;;;8.07;6.73;;;;;;;;;;5113070;28;20531;-68
2023/04/20 09:20:53;;;;;;;8.40;7.00;;;;;;;;;;5113327;28;21021;-68
2023/04/20 09:23:21;;;;;;;9.60;6.57;;;;;;;;;;5113105;28;20546;-69
2023/04/20 09:25:51;;;;;;;10.10;6.93;;;;;;;;;;5113001;28;20511;-68
2023/04/20 09:28:19;;;;;;;13.20;8.20;;;;;;;;;;5112909;28;20935;-69
2023/04/20 09:30:47;;;;;;;7.73;5.77;;;;;;;;;;5113329;28;20503;-69
2023/04/20 09:33:15;;;;;;;8.77;6.93;;;;;;;;;;5113053;28;20485;-69
2023/04/20 09:35:43;;;;;;;11.73;7.80;;;;;;;;;;5113336;28;20972;-69
2023/04/20 09:38:10;;;;;;;11.40;8.50;;;;;;;;;;5100770;28;20537;-69
2023/04/20 09:40:38;;;;;;;15.50;10.30;;;;;;;;;;5095431;28;20489;-69
2023/04/20 09:43:09;;;;;;;8.60;6.87;;;;;;;;;;5095660;28;20478;-69
2023/04/20 09:45:38;;;;;;;10.27;7.87;;;;;;;;;;5095356;28;20466;-69
2023/04/20 09:48:09;;;;;;;12.57;7.97;;;;;;;;;;5095802;28;20526;-69
2023/04/20 09:50:37;;;;;;;9.17;7.37;;;;;;;;;;5095899;28;20898;-69
2023/04/20 09:53:04;;;;;;;9.20;6.73;;;;;;;;;;5096673;28;20883;-69
2023/04/20 09:55:32;;;;;;;9.40;7.20;;;;;;;;;;5096140;28;20794;-69
2023/04/20 09:57:59;;;;;;;12.03;7.33;;;;;;;;;;5096162;28;20997;-69
2023/04/20 10:00:29;;;;;;;11.30;8.70;;;;;;;;;;5096148;28;20521;-69
2023/04/20 10:02:56;;;;;;;11.47;7.80;;;;;;;;;;5096001;28;20478;-69
2023/04/20 10:05:33;;;;;;;10.57;7.83;;;;;;;;;;5095937;28;20461;-69
2023/04/20 10:08:00;;;;;;;12.30;7.90;;;;;;;;;;5096321;28;20464;-69
2023/04/20 10:10:28;;;;;;;9.97;8.97;;;;;;;;;;5096630;28;20454;-69
2023/04/20 10:12:56;;;;;;;9.30;6.90;;;;;;;;;;5095907;28;20473;-69
2023/04/20 10:15:23;;;;;;;13.43;7.80;;;;;;;;;;5095568;28;20458;-69
2023/04/20 10:17:52;;;;;;;12.37;8.33;;;;;;;;;;5096014;28;21021;-69
2023/04/20 10:20:20;;;;;;;11.40;8.00;;;;;;;;;;5095751;28;20479;-69
2023/04/20 10:22:47;;;;;;;12.00;8.60;;;;;;;;;;5095989;28;21047;-69
2023/04/20 10:25:17;;;;;;;14.07;9.10;;;;;;;;;;5095502;28;20474;-69
2023/04/20 10:27:55;;;;;;;15.47;9.93;;;;;;;;;;5095662;28;20473;-69
2023/04/20 10:30:24;;;;;;;18.20;10.13;;;;;;;;;;5095489;28;20446;-69
2023/04/20 10:33:03;;;;;;;14.67;10.43;;;;;;;;;;5095570;28;20540;-69
2023/04/20 10:35:41;;;;;;;14.10;9.00;;;;;;;;;;5095477;28;20495;-69
2023/04/20 10:38:10;;;;;;;15.37;10.00;;;;;;;;;;5095790;28;20457;-69
2023/04/20 10:40:37;;;;;;;12.70;9.50;;;;;;;;;;5095331;28;20577;-69
2023/04/20 10:43:18;;;;;;;12.50;8.90;;;;;;;;;;5095408;28;20481;-69
2023/04/20 10:45:45;;;;;;;17.30;8.20;;;;;;;;;;5095255;28;20549;-70
2023/04/20 10:48:14;;;;;;;19.90;9.27;;;;;;;;;;5094768;28;20469;-69
2023/04/20 10:50:41;;;;;;;13.23;8.90;;;;;;;;;;5095424;28;20446;-70
2023/04/20 10:53:18;;;;;;;15.77;10.50;;;;;;;;;;5095250;28;20489;-70
2023/04/20 10:55:45;;;;;;;10.93;7.93;;;;;;;;;;5094949;28;20511;-69
2023/04/20 10:58:24;;;;;;;21.50;10.90;;;;;;;;;;5095113;28;20848;-69
2023/04/20 11:00:58;;;;;;;12.57;8.70;;;;;;;;;;5094985;28;20482;-69
2023/04/20 11:03:27;;;;;;;10.77;8.13;;;;;;;;;;5094846;28;20467;-70
2023/04/20 11:05:56;;;;;;;11.43;8.10;;;;;;;;;;5095077;28;20454;-69
2023/04/20 11:08:23;;;;;;;13.60;8.40;;;;;;;;;;5094906;28;20520;-70
2023/04/20 11:10:50;;;;;;;12.97;7.93;;;;;;;;;;5094938;28;20454;-70
2023/04/20 11:13:21;;;;;;;8.90;6.30;;;;;;;;;;5094749;28;21013;-70
2023/04/20 11:15:48;;;;;;;12.37;8.50;;;;;;;;;;5094492;28;20579;-70
2023/04/20 11:18:15;;;;;;;12.53;8.80;;;;;;;;;;5094557;28;20451;-71
2023/04/20 11:20:51;;;;;;;11.50;9.33;;;;;;;;;;5094753;28;20569;-71
2023/04/20 11:23:20;;;;;;;10.20;7.37;;;;;;;;;;5094603;28;20466;-71
2023/04/20 11:25:52;;;;;;;12.97;9.60;;;;;;;;;;5094589;28;20454;-70
2023/04/20 11:28:20;;;;;;;11.70;8.03;;;;;;;;;;5094155;28;20454;-71
2023/04/20 11:30:48;;;;;;;10.40;9.30;;;;;;;;;;5094639;28;20447;-71
2023/04/20 11:33:16;;;;;;;11.77;8.27;;;;;;;;;;5094346;28;20979;-71
2023/04/20 11:35:44;;;;;;;14.90;8.97;;;;;;;;;;5094328;28;20923;-70
2023/04/20 11:38:13;;;;;;;9.57;8.20;;;;;;;;;;5094314;28;20481;-70
2023/04/20 11:40:40;;;;;;;14.00;7.73;;;;;;;;;;5094187;28;20496;-70
2023/04/20 11:43:08;;;;;;;13.20;9.30;;;;;;;;;;5094065;28;20470;-71
2023/04/20 11:45:35;;;;;;;11.80;7.40;;;;;;;;;;5093598;28;20489;-71
2023/04/20 11:48:03;;;;;;;10.60;8.30;;;;;;;;;;5094264;28;20493;-71
2023/04/20 11:50:30;;;;;;;12.80;7.70;;;;;;;;;;5093949;28;20592;-71
2023/04/20 11:52:57;;;;;;;11.40;8.47;;;;;;;;;;5094265;28;20543;-70
2023/04/20 11:55:26;;;;;;;9.63;7.53;;;;;;;;;;5093652;28;20896;-71
2023/04/20 11:57:53;;;;;;;12.83;9.33;;;;;;;;;;5095971;28;20475;-71
2023/04/20 12:00:20;;;;;;;12.60;9.10;;;;;;;;;;5112898;28;20946;-74
2023/04/20 12:02:48;;;;;;;9.87;7.20;;;;;;;;;;5113575;28;20978;-74
2023/04/20 12:05:15;;;;;;;10.77;9.27;;;;;;;;;;5113011;28;20442;-73
2023/04/20 12:07:42;;;;;;;11.57;7.83;;;;;;;;;;5113511;28;20450;-74
2023/04/20 12:10:10;;;;;;;15.50;7.33;;;;;;;;;;5113799;28;20530;-74
2023/04/20 12:12:40;;;;;;;12.57;9.27;;;;;;;;;;5112593;28;20470;-74
2023/04/20 12:15:08;;;;;;;8.83;6.17;;;;;;;;;;5113693;28;20454;-73
2023/04/20 12:17:35;;;;;;;10.80;7.87;;;;;;;;;;5113176;28;20540;-73
2023/04/20 12:20:03;;;;;;;13.63;8.10;;;;;;;;;;5114351;28;20954;-73
2023/04/20 12:22:33;;;;;;;10.93;7.90;;;;;;;;;;5113321;28;20542;-73
2023/04/20 12:25:00;;;;;;;11.10;7.40;;;;;;;;;;5113400;28;20469;-74
2023/04/20 12:27:27;;;;;;;7.77;6.97;;;;;;;;;;5114039;28;20883;-73
2023/04/20 12:29:57;;;;;;;10.73;9.67;;;;;;;;;;5113816;28;20454;-73
2023/04/20 12:32:24;;;;;;;11.23;7.40;;;;;;;;;;5114103;28;20470;-73
2023/04/20 12:34:54;;;;;;;10.00;6.83;;;;;;;;;;5113719;28;20453;-74
2023/04/20 12:37:23;;;;;;;7.40;6.33;;;;;;;;;;5100830;28;20466;-74
2023/04/20 12:39:50;;;;;;;6.43;5.40;;;;;;;;;;5112305;28;21008;-74
2023/04/20 12:42:17;;;;;;;9.93;7.27;;;;;;;;;;5112221;28;20496;-73
2023/04/20 12:44:44;;;;;;;10.90;7.57;;;;;;;;;;5112558;28;20461;-74
2023/04/20 12:47:13;;;;;;;7.70;6.90;;;;;;;;;;5112459;28;20449;-74
2023/04/20 12:49:40;;;;;;;7.47;6.43;;;;;;;;;;5112067;28;20462;-73
2023/04/20 12:52:07;;;;;;;29.37;15.30;;;;;;;;;;5113120;28;20983;-74
2023/04/20 12:54:35;;;;;;;7.20;4.90;;;;;;;;;;5113445;28;20458;-73
2023/04/20 12:57:02;;;;;;;9.27;6.47;;;;;;;;;;5113258;28;21022;-73
2023/04/20 12:59:29;;;;;;;13.37;8.03;;;;;;;;;;5113509;28;20445;-73
2023/04/20 13:01:56;;;;;;;10.93;7.17;;;;;;;;;;5113268;28;20489;-73
2023/04/20 13:04:25;;;;;;;9.83;6.50;;;;;;;;;;5113627;28;20457;-75
2023/04/20 13:06:52;;;;;;;9.63;6.90;;;;;;;;;;5113586;28;20510;-73
2023/04/20 13:09:19;;;;;;;13.90;6.77;;;;;;;;;;5113515;28;20453;-73
2023/04/20 13:11:46;;;;;;;13.57;6.10;;;;;;;;;;5115928;28;20533;-73
2023/04/20 13:14:14;;;;;;;6.30;4.63;;;;;;;;;;5117673;27;20454;-73
2023/04/20 13:16:41;;;;;;;10.10;6.43;;;;;;;;;;5117618;28;20437;-73
2023/04/20 13:19:08;;;;;;;7.07;6.07;;;;;;;;;;5117671;28;20963;-73
2023/04/20 13:21:36;;;;;;;10.87;6.00;;;;;;;;;;5117275;28;20496;-72
2023/04/20 13:24:04;;;;;;;7.90;5.90;;;;;;;;;;5117279;28;20461;-73
2023/04/20 13:26:31;;;;;;;9.20;6.80;;;;;;;;;;5117613;28;20449;-73
2023/04/20 13:28:58;;;;;;;6.03;5.43;;;;;;;;;;5117610;28;20957;-73
2023/04/20 13:31:26;;;;;;;8.50;6.33;;;;;;;;;;5117137;28;20445;-73
2023/04/20 13:33:54;;;;;;;7.83;6.23;;;;;;;;;;5117354;28;20453;-72
2023/04/20 13:36:21;;;;;;;7.07;5.60;;;;;;;;;;5117112;28;20457;-72
2023/04/20 13:38:50;;;;;;;7.47;6.37;;;;;;;;;;5117471;28;20486;-72
2023/04/20 13:41:17;;;;;;;9.13;7.17;;;;;;;;;;5116903;28;20473;-72
2023/04/20 13:43:44;;;;;;;7.40;5.97;;;;;;;;;;5117063;28;20453;-73
2023/04/20 13:46:12;;;;;;;11.00;7.00;;;;;;;;;;5116749;28;20464;-73
2023/04/20 13:48:39;;;;;;;6.87;5.90;;;;;;;;;;5116854;28;20934;-73
2023/04/20 13:51:06;;;;;;;8.40;5.87;;;;;;;;;;5116928;28;20454;-71
2023/04/20 13:53:33;;;;;;;6.53;5.77;;;;;;;;;;5116733;28;20470;-72
2023/04/20 13:56:02;;;;;;;9.60;6.50;;;;;;;;;;5116720;28;20510;-71
2023/04/20 13:58:30;;;;;;;5.87;4.57;;;;;;;;;;5116647;28;20488;-71
2023/04/20 14:00:57;;;;;;;7.70;5.37;;;;;;;;;;5116685;28;20503;-71
2023/04/20 14:03:25;;;;;;;7.70;5.90;;;;;;;;;;5116267;28;20481;-71
2023/04/20 14:05:53;;;;;;;7.03;6.10;;;;;;;;;;5116681;28;21059;-71
2023/04/20 14:08:22;;;;;;;5.93;5.13;;;;;;;;;;5116619;28;20884;-71
2023/04/20 14:10:49;;;;;;;7.50;5.90;;;;;;;;;;5116567;28;20461;-71
2023/04/20 14:13:17;;;;;;;9.33;5.93;;;;;;;;;;5116539;28;20493;-71
2023/04/20 14:15:45;;;;;;;26.43;13.43;;;;;;;;;;5116181;28;20452;-71
2023/04/20 14:18:12;;;;;;;6.80;5.70;;;;;;;;;;5116453;28;20453;-71
2023/04/20 14:20:39;;;;;;;13.97;7.77;;;;;;;;;;5116253;28;20449;-71
2023/04/20 14:23:06;;;;;;;6.83;6.10;;;;;;;;;;5114682;28;21014;-71
2023/04/20 14:25:34;;;;;;;9.30;5.67;;;;;;;;;;5116360;27;20828;-71
2023/04/20 14:28:01;;;;;;;8.70;5.37;;;;;;;;;;5116277;28;20477;-71
2023/04/20 14:30:30;;;;;;;21.87;11.53;;;;;;;;;;5116283;28;20867;-71